createdAt,value
2023-05-10T00:01:39.248Z,13.65
2023-05-10T00:03:35.202Z,13.64
2023-05-10T00:05:52.916Z,13.68
2023-05-10T00:07:52.012Z,13.71
2023-05-10T00:10:30.157Z,13.71
2023-05-10T00:12:36.818Z,13.67
2023-05-10T00:14:37.126Z,13.68
2023-05-10T00:16:51.514Z,13.61
2023-05-10T00:19:13.035Z,13.60
2023-05-10T00:21:09.867Z,13.60
2023-05-10T00:23:07.499Z,13.60
2023-05-10T00:25:03.440Z,13.58
2023-05-10T00:27:00.236Z,13.51
2023-05-10T00:29:06.843Z,13.51
2023-05-10T00:31:03.571Z,13.51
2023-05-10T00:33:06.894Z,13.45
2023-05-10T00:35:14.992Z,13.45
2023-05-10T00:37:19.012Z,13.40
2023-05-10T00:39:14.703Z,13.41
2023-05-10T00:41:10.535Z,13.42
2023-05-10T00:43:06.086Z,13.39
2023-05-10T00:45:01.552Z,13.38
2023-05-10T00:46:56.877Z,13.32
2023-05-10T00:48:56.131Z,13.31
2023-05-10T00:50:51.879Z,13.32
2023-05-10T00:52:47.927Z,13.29
2023-05-10T00:54:43.651Z,13.22
2023-05-10T00:56:49.524Z,13.18
2023-05-10T00:58:47.057Z,13.16
2023-05-10T01:00:45.975Z,13.11
2023-05-10T01:02:45.087Z,13.09
2023-05-10T01:04:55.410Z,13.08
2023-05-10T01:06:54.398Z,13.06
2023-05-10T01:08:50.599Z,13.04
2023-05-10T01:10:47.622Z,13.02
2023-05-10T01:12:46.943Z,13.02
2023-05-10T01:14:43.298Z,13.01
2023-05-10T01:16:42.981Z,13.00
2023-05-10T01:18:40.815Z,13.03
2023-05-10T01:20:45.940Z,13.04
2023-05-10T01:23:30.068Z,12.97
2023-05-10T01:25:43.949Z,12.87
2023-05-10T01:27:59.651Z,12.85
2023-05-10T01:30:16.146Z,12.80
2023-05-10T01:32:25.532Z,12.81
2023-05-10T01:34:30.800Z,12.81
2023-05-10T01:36:33.419Z,12.74
2023-05-10T01:38:37.466Z,12.74
2023-05-10T01:40:42.309Z,12.67
2023-05-10T01:43:01.448Z,12.63
2023-05-10T01:45:04.118Z,12.65
2023-05-10T01:47:10.075Z,12.63
2023-05-10T01:49:33.524Z,12.62
2023-05-10T01:51:39.703Z,12.57
2023-05-10T01:53:47.267Z,12.57
2023-05-10T01:56:28.677Z,12.57
2023-05-10T01:58:31.543Z,12.55
2023-05-10T02:00:28.374Z,12.53
2023-05-10T02:02:25.399Z,12.49
2023-05-10T02:04:27.570Z,12.46
2023-05-10T02:06:24.864Z,12.36
2023-05-10T02:08:22.174Z,12.36
2023-05-10T02:10:18.636Z,12.37
2023-05-10T02:12:18.068Z,12.39
2023-05-10T02:14:20.866Z,12.42
2023-05-10T02:16:18.595Z,12.37
2023-05-10T02:18:16.683Z,12.35
2023-05-10T02:20:17.092Z,12.36
2023-05-10T02:22:14.282Z,12.32
2023-05-10T02:24:12.967Z,12.31
2023-05-10T02:26:10.765Z,12.29
2023-05-10T02:28:13.204Z,12.23
2023-05-10T02:30:13.984Z,12.22
2023-05-10T02:32:10.697Z,12.16
2023-05-10T02:34:08.189Z,12.12
2023-05-10T02:36:07.284Z,12.07
2023-05-10T02:38:03.813Z,12.04
2023-05-10T02:40:07.510Z,12.04
2023-05-10T02:42:14.545Z,12.08
2023-05-10T02:44:26.818Z,12.04
2023-05-10T02:46:41.610Z,12.04
2023-05-10T02:48:47.385Z,12.04
2023-05-10T02:51:08.006Z,12.03
2023-05-10T02:53:21.131Z,11.96
2023-05-10T03:01:00.465Z,11.77
2023-05-10T03:03:04.181Z,11.79
2023-05-10T03:05:19.512Z,11.78
2023-05-10T03:07:29.291Z,11.76
2023-05-10T03:09:32.555Z,11.76
2023-05-10T03:12:21.940Z,11.80
2023-05-10T03:14:56.125Z,11.78
2023-05-10T03:17:21.532Z,11.74
2023-05-10T03:19:49.056Z,11.72
2023-05-10T03:22:17.502Z,11.69
2023-05-10T03:24:31.279Z,11.67
2023-05-10T03:26:53.909Z,11.53
2023-05-10T03:29:07.549Z,11.52
2023-05-10T03:31:21.975Z,11.51
2023-05-10T03:33:18.044Z,11.51
2023-05-10T03:35:16.908Z,11.49
2023-05-10T03:37:12.638Z,11.48
2023-05-10T03:39:11.768Z,11.46
2023-05-10T03:41:07.475Z,11.42
2023-05-10T03:43:09.513Z,11.43
2023-05-10T03:45:06.537Z,11.42
2023-05-10T03:47:06.395Z,11.34
2023-05-10T03:49:05.403Z,11.38
2023-05-10T03:51:01.387Z,11.37
2023-05-10T03:52:57.456Z,11.38
2023-05-10T03:54:54.236Z,11.38
2023-05-10T03:56:49.777Z,11.36
2023-05-10T03:58:48.333Z,11.37
2023-05-10T04:00:47.671Z,11.33
2023-05-10T04:02:46.410Z,11.34
2023-05-10T04:04:42.243Z,11.33
2023-05-10T04:06:51.827Z,11.29
2023-05-10T04:08:47.757Z,11.24
2023-05-10T04:10:46.991Z,11.22
2023-05-10T04:12:42.494Z,11.15
2023-05-10T04:14:40.929Z,11.16
2023-05-10T04:16:36.224Z,11.14
2023-05-10T04:18:31.907Z,11.14
2023-05-10T04:20:27.108Z,11.17
2023-05-10T04:22:22.745Z,11.16
2023-05-10T04:24:18.094Z,11.14
2023-05-10T04:26:13.789Z,11.19
2023-05-10T04:28:09.090Z,11.17
2023-05-10T04:30:08.572Z,11.12
2023-05-10T04:32:04.770Z,11.06
2023-05-10T04:34:00.390Z,11.03
2023-05-10T04:35:55.436Z,11.01
2023-05-10T04:37:50.963Z,11.02
2023-05-10T04:39:46.058Z,10.98
2023-05-10T04:41:41.992Z,10.99
2023-05-10T04:43:37.489Z,10.99
2023-05-10T04:45:35.719Z,10.98
2023-05-10T04:47:30.867Z,10.97
2023-05-10T04:49:26.375Z,10.98
2023-05-10T04:51:21.636Z,10.99
2023-05-10T04:53:17.347Z,11.00
2023-05-10T04:55:13.043Z,11.00
2023-05-10T04:57:08.589Z,11.03
2023-05-10T04:59:03.789Z,11.00
2023-05-10T05:01:11.730Z,11.01
2023-05-10T05:03:08.357Z,11.03
2023-05-10T05:05:03.927Z,11.07
2023-05-10T05:06:58.988Z,11.11
2023-05-10T05:08:57.027Z,11.09
2023-05-10T05:10:52.439Z,11.13
2023-05-10T05:12:48.618Z,11.14
2023-05-10T05:14:44.264Z,11.11
2023-05-10T05:16:42.378Z,11.08
2023-05-10T05:18:37.487Z,11.09
2023-05-10T05:20:36.097Z,11.10
2023-05-10T05:22:31.149Z,11.15
2023-05-10T05:24:26.838Z,11.16
2023-05-10T05:26:22.556Z,11.16
2023-05-10T05:28:21.590Z,11.19
2023-05-10T05:30:16.976Z,11.21
2023-05-10T05:32:15.252Z,11.20
2023-05-10T05:34:10.353Z,11.24
2023-05-10T05:36:06.860Z,11.28
2023-05-10T05:38:02.137Z,11.29
2023-05-10T05:39:57.960Z,11.30
2023-05-10T05:41:53.132Z,11.31
2023-05-10T05:43:48.465Z,11.34
2023-05-10T05:45:43.559Z,11.37
2023-05-10T05:47:42.850Z,11.39
2023-05-10T05:49:38.277Z,11.46
2023-05-10T05:51:35.882Z,11.43
2023-05-10T05:53:32.660Z,11.51
2023-05-10T05:55:28.605Z,11.52
2023-05-10T05:57:24.108Z,11.57
2023-05-10T05:59:19.886Z,11.58
2023-05-10T06:01:15.279Z,11.64
2023-05-10T06:03:13.404Z,11.71
2023-05-10T06:05:09.765Z,11.76
2023-05-10T06:07:05.132Z,11.76
2023-05-10T06:09:00.219Z,11.84
2023-05-10T06:10:55.683Z,11.86
2023-05-10T06:12:50.820Z,11.92
2023-05-10T06:14:46.373Z,11.96
2023-05-10T06:16:41.721Z,12.02
2023-05-10T06:18:40.067Z,12.06
2023-05-10T06:20:35.249Z,12.10
2023-05-10T06:22:30.813Z,12.14
2023-05-10T06:24:25.814Z,12.19
2023-05-10T06:26:22.041Z,12.23
2023-05-10T06:28:17.333Z,12.28
2023-05-10T06:30:15.875Z,12.34
2023-05-10T06:32:11.090Z,12.38
2023-05-10T06:34:09.347Z,12.42
2023-05-10T06:36:05.814Z,12.45
2023-05-10T06:38:01.395Z,12.51
2023-05-10T06:39:56.491Z,12.56
2023-05-10T06:41:52.066Z,12.59
2023-05-10T06:43:47.213Z,12.61
2023-05-10T06:45:42.812Z,12.64
2023-05-10T06:47:39.144Z,12.71
2023-05-10T06:49:38.205Z,12.75
2023-05-10T06:51:33.997Z,12.80
2023-05-10T06:53:29.415Z,12.87
2023-05-10T06:55:24.775Z,12.88
2023-05-10T06:57:31.162Z,12.94
2023-05-10T06:59:27.302Z,12.99
2023-05-10T07:01:23.007Z,13.03
2023-05-10T07:03:18.333Z,13.04
2023-05-10T07:05:16.660Z,13.11
2023-05-10T07:07:12.317Z,13.16
2023-05-10T07:09:08.821Z,13.18
2023-05-10T07:11:05.142Z,13.15
2023-05-10T07:13:01.608Z,13.18
2023-05-10T07:14:56.831Z,13.24
2023-05-10T07:16:52.278Z,13.29
2023-05-10T07:18:47.404Z,13.36
2023-05-10T07:20:45.591Z,13.45
2023-05-10T07:22:46.916Z,13.45
2023-05-10T07:25:27.537Z,13.49
2023-05-10T07:27:26.702Z,13.54
2023-05-10T07:29:22.167Z,13.57
2023-05-10T07:31:17.386Z,13.63
2023-05-10T07:33:14.071Z,13.63
2023-05-10T07:35:09.764Z,13.66
2023-05-10T07:37:08.542Z,13.70
2023-05-10T07:39:03.630Z,13.74
2023-05-10T07:40:59.181Z,13.84
2023-05-10T07:42:54.316Z,13.89
2023-05-10T07:44:49.813Z,13.95
2023-05-10T07:46:44.850Z,14.02
2023-05-10T07:48:40.728Z,14.07
2023-05-10T07:50:35.876Z,14.08
2023-05-10T07:55:47.403Z,14.20
2023-05-10T07:57:43.499Z,14.23
2023-05-10T07:59:38.962Z,14.25
2023-05-10T08:01:49.117Z,14.37
2023-05-10T08:11:05.686Z,14.67
2023-05-10T08:13:48.494Z,14.73
2023-05-10T08:16:18.698Z,14.85
2023-05-10T08:18:42.276Z,14.96
2023-05-10T08:21:02.969Z,14.95
2023-05-10T08:23:41.433Z,15.09
2023-05-10T08:25:43.916Z,15.16
2023-05-10T08:27:42.429Z,15.20
2023-05-10T08:29:49.056Z,15.25
2023-05-10T08:31:47.492Z,15.28
2023-05-10T08:33:44.585Z,15.39
2023-05-10T08:35:41.233Z,15.40
2023-05-10T08:37:37.104Z,15.54
2023-05-10T08:39:38.649Z,15.71
2023-05-10T08:41:46.232Z,15.69
2023-05-10T08:44:02.990Z,15.75
2023-05-10T08:48:50.429Z,15.98
2023-05-10T08:51:20.183Z,15.98
2023-05-10T08:54:10.421Z,16.20
2023-05-10T08:57:07.117Z,16.31
2023-05-10T09:00:02.845Z,16.36
2023-05-10T09:02:02.668Z,16.51
2023-05-10T09:04:13.310Z,16.63
2023-05-10T09:06:15.244Z,16.76
2023-05-10T09:08:14.244Z,16.84
2023-05-10T09:10:19.269Z,16.87
2023-05-10T09:12:17.282Z,16.84
2023-05-10T09:14:14.733Z,17.11
2023-05-10T09:16:21.663Z,17.13
2023-05-10T09:18:21.305Z,17.23
2023-05-10T09:20:18.797Z,17.29
2023-05-10T09:22:17.551Z,17.31
2023-05-10T09:24:13.454Z,17.42
2023-05-10T09:26:10.391Z,17.56
2023-05-10T09:28:06.418Z,17.50
2023-05-10T09:30:05.350Z,17.53
2023-05-10T09:32:13.846Z,17.65
2023-05-10T09:34:14.996Z,17.87
2023-05-10T09:36:13.267Z,18.12
2023-05-10T09:38:09.827Z,18.27
2023-05-10T09:40:08.649Z,18.26
2023-05-10T09:42:40.537Z,18.35
2023-05-10T09:45:22.784Z,18.60
2023-05-10T09:47:32.953Z,18.62
2023-05-10T09:49:47.643Z,18.82
2023-05-10T09:52:10.493Z,18.92
2023-05-10T09:54:26.695Z,18.91
2023-05-10T09:59:23.853Z,19.17
2023-05-10T10:05:57.438Z,19.54
2023-05-10T10:15:08.664Z,19.56
2023-05-10T10:17:08.770Z,19.80
2023-05-10T10:19:05.147Z,20.09
2023-05-10T10:21:01.201Z,20.09
2023-05-10T10:22:56.821Z,20.13
2023-05-10T10:24:56.493Z,20.20
2023-05-10T10:26:56.313Z,20.17
2023-05-10T10:29:05.448Z,20.19
2023-05-10T10:31:07.669Z,20.28
2023-05-10T10:33:28.309Z,20.20
2023-05-10T10:35:24.926Z,20.02
2023-05-10T10:37:21.656Z,20.42
2023-05-10T10:39:21.671Z,20.58
2023-05-10T10:41:47.358Z,20.76
2023-05-10T10:44:04.044Z,20.92
2023-05-10T10:46:19.461Z,20.69
2023-05-10T10:48:28.163Z,20.62
2023-05-10T10:50:39.914Z,20.58
2023-05-10T10:53:01.008Z,20.77
2023-05-10T10:55:18.691Z,21.03
2023-05-10T10:57:46.893Z,20.62
2023-05-10T11:00:02.624Z,20.90
2023-05-10T11:02:06.748Z,21.45
2023-05-10T11:04:22.090Z,21.50
2023-05-10T11:06:59.240Z,21.22
2023-05-10T12:03:17.043Z,24.20
2023-05-10T12:05:18.896Z,24.03
2023-05-10T12:07:14.109Z,24.14
2023-05-10T12:09:44.184Z,24.12
2023-05-10T12:11:44.307Z,23.64
2023-05-10T12:21:12.011Z,24.11
2023-05-10T14:36:08.125Z,27.82
2023-05-10T14:38:33.694Z,27.86
2023-05-10T14:40:50.057Z,27.86
2023-05-10T14:46:52.043Z,27.96
2023-05-10T14:49:03.720Z,28.04
2023-05-10T14:51:01.381Z,27.12
2023-05-10T14:52:56.587Z,27.18
2023-05-10T14:54:54.770Z,27.25
2023-05-10T14:56:51.065Z,26.83
2023-05-10T14:58:58.983Z,27.28
2023-05-10T15:00:54.630Z,27.54
2023-05-10T15:02:51.188Z,27.62
2023-05-10T15:04:48.524Z,27.56
2023-05-10T15:06:44.905Z,27.70
2023-05-10T15:08:40.253Z,27.68
2023-05-10T15:10:38.924Z,27.77
2023-05-10T15:12:34.217Z,27.96
2023-05-10T15:14:31.494Z,27.58
2023-05-10T15:16:26.797Z,27.23
2023-05-10T15:18:25.000Z,26.67
2023-05-10T15:20:20.448Z,26.63
2023-05-10T15:22:16.369Z,26.65
2023-05-10T15:24:12.429Z,26.52
2023-05-10T15:26:13.866Z,25.92
2023-05-10T15:28:14.349Z,25.91
2023-05-10T15:30:14.572Z,25.99
2023-05-10T15:32:14.165Z,26.12
2023-05-10T15:34:09.749Z,25.99
2023-05-10T15:36:05.460Z,25.96
2023-05-10T15:38:06.168Z,25.91
2023-05-10T15:40:06.834Z,25.63
2023-05-10T15:42:13.267Z,25.55
2023-05-10T15:44:15.145Z,25.58
2023-05-10T15:46:11.742Z,25.64
2023-05-10T15:48:12.926Z,25.35
2023-05-10T15:50:12.467Z,25.41
2023-05-10T15:52:25.476Z,25.28
2023-05-10T15:56:55.055Z,25.10
2023-05-10T15:58:53.076Z,25.33
2023-05-10T16:00:48.291Z,25.10
2023-05-10T16:02:43.997Z,25.19
2023-05-10T16:04:39.377Z,25.20
2023-05-10T16:06:39.461Z,25.14
2023-05-10T16:08:42.033Z,24.94
2023-05-10T16:10:49.890Z,24.82
2023-05-10T16:12:45.578Z,24.76
2023-05-10T16:14:44.313Z,24.86
2023-05-10T16:16:43.429Z,24.99
2023-05-10T16:18:43.204Z,25.07
2023-05-10T16:20:48.088Z,24.73
2023-05-10T16:23:04.055Z,24.68
2023-05-10T16:25:24.688Z,23.28
2023-05-10T16:27:22.434Z,23.02
2023-05-10T16:29:32.141Z,22.60
2023-05-10T16:31:32.688Z,23.24
2023-05-10T16:33:37.565Z,22.65
2023-05-10T16:35:33.493Z,22.78
2023-05-10T16:37:33.609Z,22.85
2023-05-10T16:39:29.345Z,22.62
2023-05-10T16:41:24.841Z,22.67
2023-05-10T16:43:26.074Z,22.57
2023-05-10T16:45:21.842Z,22.24
2023-05-10T16:47:20.417Z,22.24
2023-05-10T16:49:15.908Z,22.01
2023-05-10T16:51:12.544Z,21.66
2023-05-10T16:53:08.097Z,21.65
2023-05-10T16:55:04.544Z,21.44
2023-05-10T16:57:00.144Z,21.34
2023-05-10T16:58:55.995Z,21.77
2023-05-10T17:00:51.445Z,21.83
2023-05-10T17:02:49.622Z,21.64
2023-05-10T17:04:45.558Z,21.70
2023-05-10T17:06:45.689Z,21.95
2023-05-10T17:11:57.613Z,21.49
2023-05-10T17:13:59.984Z,21.39
2023-05-10T17:16:07.779Z,21.31
2023-05-10T17:18:13.381Z,21.63
2023-05-10T17:20:15.082Z,21.60
2023-05-10T17:22:14.899Z,21.56
2023-05-10T17:24:14.966Z,21.76
2023-05-10T17:26:17.350Z,21.81
2023-05-10T17:28:19.592Z,21.68
2023-05-10T17:30:27.683Z,21.37
2023-05-10T17:32:25.908Z,21.31
2023-05-10T17:35:21.760Z,21.42
2023-05-10T17:42:49.680Z,21.14
2023-05-10T17:47:48.434Z,20.69
2023-05-10T17:50:38.248Z,20.74
2023-05-10T17:53:00.184Z,20.80
2023-05-10T17:56:02.799Z,20.89
2023-05-10T18:15:01.455Z,20.30
2023-05-10T18:17:00.899Z,20.27
2023-05-10T18:18:59.560Z,20.31
2023-05-10T18:21:01.910Z,20.27
2023-05-10T18:23:01.766Z,20.26
2023-05-10T18:24:57.593Z,20.29
2023-05-10T18:26:55.944Z,20.20
2023-05-10T18:28:51.979Z,20.21
2023-05-10T18:30:49.739Z,20.16
2023-05-10T18:32:45.378Z,20.20
2023-05-10T18:34:40.673Z,20.25
2023-05-10T18:36:36.594Z,20.28
2023-05-10T18:38:41.016Z,20.34
2023-05-10T18:40:37.104Z,20.26
2023-05-10T18:42:32.742Z,20.24
2023-05-10T18:44:31.554Z,20.33
2023-05-10T18:46:32.396Z,20.43
2023-05-10T18:48:30.616Z,20.46
2023-05-10T18:50:28.991Z,20.46
2023-05-10T18:52:30.207Z,20.34
2023-05-10T18:54:25.727Z,20.43
2023-05-10T18:56:25.235Z,20.43
2023-05-10T18:58:34.174Z,20.44
2023-05-10T19:00:32.727Z,20.49
2023-05-10T19:02:30.792Z,20.54
2023-05-10T19:04:26.593Z,20.55
2023-05-10T19:06:21.897Z,20.51
2023-05-10T19:08:18.257Z,20.56
2023-05-10T19:10:17.135Z,20.55
2023-05-10T19:12:18.746Z,20.57
2023-05-10T19:17:59.974Z,20.64
2023-05-10T19:20:05.836Z,20.66
2023-05-10T19:23:09.276Z,20.65
2023-05-10T19:25:45.882Z,20.73
2023-05-10T19:28:00.045Z,20.78
2023-05-10T19:30:34.724Z,20.81
2023-05-10T19:32:45.866Z,20.81
2023-05-10T19:35:13.924Z,20.82
2023-05-10T19:37:52.716Z,20.79
2023-05-10T19:39:58.896Z,20.79
2023-05-10T19:42:14.583Z,20.77
2023-05-10T19:50:20.921Z,20.58
2023-05-10T19:52:30.984Z,20.52
2023-05-10T19:57:16.242Z,20.47
2023-05-10T19:59:16.353Z,20.43
2023-05-10T20:01:13.530Z,20.39
2023-05-10T20:03:10.974Z,20.36
2023-05-10T20:05:18.320Z,20.31
2023-05-10T20:07:18.557Z,20.25
2023-05-10T20:09:31.712Z,20.23
2023-05-10T20:11:56.280Z,20.18
2023-05-10T20:14:47.299Z,20.09
2023-05-10T20:17:17.698Z,20.05
2023-05-10T20:19:47.135Z,19.96
2023-05-10T20:33:38.469Z,19.82
2023-05-10T20:44:46.203Z,19.69
2023-05-10T20:51:35.274Z,19.42
2023-05-10T20:54:20.329Z,19.26
2023-05-10T20:56:39.371Z,19.10
2023-05-10T20:58:58.351Z,19.04
2023-05-10T21:01:40.974Z,19.10
2023-05-10T21:03:55.672Z,18.96
2023-05-10T21:06:27.328Z,18.74
2023-05-10T21:08:54.508Z,18.37
2023-05-10T21:16:20.918Z,18.77
2023-05-10T21:26:14.100Z,18.65
2023-05-10T21:29:12.778Z,18.55
2023-05-10T21:32:00.782Z,18.57
2023-05-10T21:38:06.394Z,18.54
2023-05-10T21:41:05.365Z,18.54
2023-05-10T21:54:32.541Z,18.47
2023-05-10T22:01:09.015Z,18.42
2023-05-10T22:11:03.891Z,18.34
2023-05-10T22:14:00.707Z,18.30
2023-05-10T22:17:09.901Z,18.24
2023-05-10T22:27:00.421Z,17.92
2023-05-10T22:30:00.500Z,17.90
2023-05-10T22:32:27.113Z,17.88
2023-05-10T22:35:09.094Z,17.86
2023-05-10T22:37:33.423Z,17.86
2023-05-10T22:40:18.892Z,17.83
2023-05-10T22:42:55.262Z,17.80
2023-05-10T22:51:18.267Z,17.72
2023-05-10T22:54:06.414Z,17.66
2023-05-10T22:55:54.451Z,17.61
2023-05-10T22:57:57.493Z,17.59
2023-05-10T23:00:50.610Z,17.57
2023-05-10T23:03:01.134Z,17.56
2023-05-10T23:05:18.914Z,17.56
2023-05-10T23:07:19.061Z,17.55
2023-05-10T23:09:23.520Z,17.52
2023-05-10T23:11:29.084Z,17.49
2023-05-10T23:13:33.080Z,17.47
2023-05-10T23:15:34.778Z,17.44
2023-05-10T23:17:30.517Z,17.38
2023-05-10T23:19:26.668Z,17.34
2023-05-10T23:21:22.747Z,17.28
2023-05-10T23:23:23.091Z,17.23
2023-05-10T23:25:19.095Z,17.22
2023-05-10T23:27:23.444Z,17.20
2023-05-10T23:29:32.983Z,17.15
2023-05-10T23:31:46.063Z,17.11
2023-05-10T23:33:41.382Z,17.10
2023-05-10T23:35:37.268Z,17.11
2023-05-10T23:37:33.041Z,17.12
2023-05-10T23:39:33.072Z,17.13
2023-05-10T23:41:33.938Z,17.12
2023-05-10T23:43:34.192Z,17.06
2023-05-10T23:45:31.898Z,17.00
2023-05-10T23:47:32.466Z,16.94
2023-05-10T23:49:33.934Z,16.84
2023-05-10T23:51:37.495Z,16.78
2023-05-10T23:56:47.416Z,16.75
2023-05-10T23:58:44.405Z,16.70
